Time;durP1;ratioP1;P1;durP2;ratioP2;P2;SDS_P1;SDS_P2;PMS_P1;PMS_P2;Temp;Humidity;BMP_temperature;BMP_pressure;BME280_temperature;BME280_humidity;BME280_pressure;Samples;Min_cycle;Max_cycle;Signal;HPM_P1;HPM_P2
2021/04/11 00:00:56;;;;;;;27.20;15.50;;;9.20;99.90;;;;;;5032227;28;20441;-72
2021/04/11 00:03:27;;;;;;;26.85;16.77;;;9.20;99.90;;;;;;5027466;28;20032;-72
2021/04/11 00:05:53;;;;;;;29.48;15.93;;;9.30;99.90;;;;;;5025104;28;20064;-72
2021/04/11 00:08:20;;;;;;;30.98;16.58;;;9.20;99.90;;;;;;5019976;28;20057;-72
2021/04/11 00:10:49;;;;;;;29.80;16.33;;;9.20;99.90;;;;;;5023924;28;20033;-72
2021/04/11 00:13:22;;;;;;;28.35;16.05;;;9.20;99.90;;;;;;5022488;28;20113;-71
2021/04/11 00:15:47;;;;;;;31.23;15.98;;;9.20;99.90;;;;;;5022003;28;20029;-73
2021/04/11 00:18:13;;;;;;;24.88;15.52;;;9.20;99.90;;;;;;5024930;28;20021;-73
2021/04/11 00:20:39;;;;;;;29.45;16.65;;;9.20;99.90;;;;;;5024852;28;20487;-72
2021/04/11 00:23:05;;;;;;;29.45;16.08;;;9.20;99.90;;;;;;5026260;28;20033;-73
2021/04/11 00:25:35;;;;;;;26.13;16.20;;;9.20;99.90;;;;;;5019139;28;20032;-72
2021/04/11 00:28:01;;;;;;;30.10;16.55;;;9.20;99.90;;;;;;5027180;28;20065;-73
2021/04/11 00:30:27;;;;;;;31.80;15.95;;;9.20;99.90;;;;;;5026805;28;20060;-73
2021/04/11 00:32:55;;;;;;;25.35;15.63;;;9.10;99.90;;;;;;5026236;28;20033;-73
2021/04/11 00:35:21;;;;;;;30.95;16.30;;;9.10;99.90;;;;;;5024821;28;20021;-73
2021/04/11 00:37:47;;;;;;;28.83;16.92;;;9.10;99.90;;;;;;5029117;28;20079;-72
2021/04/11 00:40:24;;;;;;;29.30;17.23;;;9.10;99.90;;;;;;5024514;28;20030;-73
2021/04/11 00:43:12;;;;;;;32.45;17.10;;;9.10;99.90;;;;;;5026619;28;20061;-73
2021/04/11 00:46:14;;;;;;;28.27;16.48;;;9.10;99.90;;;;;;5021962;28;20480;-73
2021/04/11 00:48:40;;;;;;;32.65;17.27;;;9.10;99.90;;;;;;5025060;28;20037;-73
2021/04/11 00:51:10;;;;;;;33.17;16.88;;;9.10;99.90;;;;;;5028705;28;20048;-72
2021/04/11 00:53:36;;;;;;;31.90;17.10;;;9.10;99.90;;;;;;5030496;28;20025;-73
2021/04/11 00:56:03;;;;;;;35.20;17.73;;;9.10;99.90;;;;;;5025856;28;20052;-73
2021/04/11 00:58:31;;;;;;;28.90;17.45;;;9.10;99.90;;;;;;5030325;28;20498;-73
2021/04/11 01:00:57;;;;;;;33.13;17.63;;;9.10;99.90;;;;;;5029803;28;20307;-73
2021/04/11 01:03:26;;;;;;;31.00;18.17;;;9.10;99.90;;;;;;5024471;28;20037;-72
2021/04/11 01:05:53;;;;;;;31.38;17.38;;;9.10;99.90;;;;;;5027004;28;20033;-73
2021/04/11 01:08:24;;;;;;;29.58;18.20;;;9.10;99.90;;;;;;5030794;28;20053;-73
2021/04/11 01:11:10;;;;;;;30.77;18.35;;;9.10;99.90;;;;;;5030084;28;20488;-73
2021/04/11 01:13:41;;;;;;;34.42;19.05;;;9.00;99.90;;;;;;5022059;28;20048;-72
2021/04/11 01:16:07;;;;;;;31.88;18.98;;;9.00;99.90;;;;;;5024604;28;20026;-72
2021/04/11 01:18:32;;;;;;;33.55;19.70;;;9.00;99.90;;;;;;5019325;28;20041;-73
2021/04/11 01:21:04;;;;;;;36.78;19.13;;;9.00;99.90;;;;;;5025231;28;20049;-72
2021/04/11 01:24:01;;;;;;;32.17;19.17;;;9.00;99.90;;;;;;5028308;28;20468;-73
2021/04/11 01:26:27;;;;;;;34.60;19.75;;;9.10;99.90;;;;;;5027802;28;20512;-73
2021/04/11 01:28:55;;;;;;;36.67;20.30;;;9.00;99.90;;;;;;5028313;28;20042;-72
2021/04/11 01:31:21;;;;;;;36.67;19.25;;;9.00;99.90;;;;;;5022090;28;20895;-73
2021/04/11 01:33:51;;;;;;;36.33;20.30;;;9.10;99.90;;;;;;5024495;28;20038;-72
2021/04/11 01:36:23;;;;;;;35.38;20.13;;;9.00;99.90;;;;;;5027971;28;20076;-73
2021/04/11 01:38:50;;;;;;;38.53;20.42;;;9.00;99.90;;;;;;5018152;28;20025;-72
2021/04/11 01:41:36;;;;;;;35.08;20.02;;;9.00;99.90;;;;;;5029460;28;20021;-72
2021/04/11 01:44:03;;;;;;;34.63;19.75;;;9.10;99.90;;;;;;5029859;28;20508;-73
2021/04/11 01:46:29;;;;;;;35.67;19.77;;;9.00;99.90;;;;;;5027453;28;20423;-73
2021/04/11 01:48:55;;;;;;;34.88;20.58;;;9.00;99.90;;;;;;5019959;28;20030;-73
2021/04/11 01:51:25;;;;;;;36.03;20.85;;;9.00;99.90;;;;;;5028383;28;20053;-73
2021/04/11 01:53:52;;;;;;;39.17;22.13;;;9.00;99.90;;;;;;5032390;28;20088;-73
2021/04/11 01:56:19;;;;;;;46.05;22.10;;;9.00;99.90;;;;;;5027354;28;20029;-73
2021/04/11 01:58:45;;;;;;;39.97;21.70;;;9.00;99.90;;;;;;5028669;28;20660;-73
2021/04/11 02:01:31;;;;;;;40.50;21.52;;;9.00;99.90;;;;;;5027064;28;20112;-73
2021/04/11 02:04:02;;;;;;;38.53;21.15;;;9.00;99.90;;;;;;5022566;28;20488;-73
2021/04/11 02:06:29;;;;;;;38.25;21.73;;;9.00;99.90;;;;;;5026503;28;20029;-73
2021/04/11 02:09:00;;;;;;;38.15;22.45;;;9.00;99.90;;;;;;5029273;28;20107;-73
2021/04/11 02:11:26;;;;;;;40.75;21.92;;;9.00;99.90;;;;;;5024866;28;20037;-72
2021/04/11 02:13:52;;;;;;;41.67;23.30;;;9.00;99.90;;;;;;5030939;28;20022;-73
2021/04/11 02:16:23;;;;;;;39.03;22.27;;;9.00;99.90;;;;;;5027089;28;20671;-72
2021/04/11 02:18:48;;;;;;;41.75;22.50;;;9.00;99.90;;;;;;5027662;28;20029;-73
2021/04/11 02:21:20;;;;;;;37.83;21.58;;;9.00;99.90;;;;;;5027826;28;20381;-73
2021/04/11 02:23:47;;;;;;;38.40;22.45;;;9.00;99.90;;;;;;5028658;28;20037;-73
2021/04/11 02:26:13;;;;;;;44.28;23.42;;;9.00;99.90;;;;;;5028428;28;20029;-73
2021/04/11 02:28:40;;;;;;;41.15;22.83;;;9.00;99.90;;;;;;5025196;28;20484;-73
2021/04/11 02:31:17;;;;;;;38.58;22.98;;;9.00;99.90;;;;;;5025910;28;20072;-73
2021/04/11 02:33:48;;;;;;;39.72;22.55;;;9.00;99.90;;;;;;5021263;28;20037;-72
2021/04/11 02:36:15;;;;;;;40.97;23.25;;;9.00;99.90;;;;;;5028905;28;20026;-73
2021/04/11 02:38:42;;;;;;;42.13;24.00;;;9.00;99.90;;;;;;5025516;28;20092;-72
2021/04/11 02:41:08;;;;;;;42.90;24.25;;;9.00;99.90;;;;;;5016225;28;20061;-73
2021/04/11 02:43:33;;;;;;;42.33;23.65;;;9.00;99.90;;;;;;5024379;28;20056;-73
2021/04/11 02:45:59;;;;;;;46.83;24.58;;;9.00;99.90;;;;;;5026123;28;20116;-73
2021/04/11 02:48:25;;;;;;;41.60;22.70;;;9.00;99.90;;;;;;5025440;28;20113;-73
2021/04/11 02:50:51;;;;;;;43.63;24.38;;;9.00;99.90;;;;;;5023506;28;20037;-73
2021/04/11 02:53:22;;;;;;;44.63;22.77;;;9.00;99.90;;;;;;5024385;28;20044;-73
2021/04/11 02:55:48;;;;;;;;;;;9.00;99.90;;;;;;5029239;28;20115;-73
2021/04/11 02:58:16;;;;;;;43.75;22.85;;;9.00;99.90;;;;;;5025175;28;19991;-72
2021/04/11 03:00:55;;;;;;;40.25;23.08;;;9.00;99.90;;;;;;5030086;28;20511;-72
2021/04/11 03:03:20;;;;;;;45.08;24.02;;;9.00;99.90;;;;;;5025804;28;20061;-73
2021/04/11 03:05:46;;;;;;;48.28;24.58;;;9.00;99.90;;;;;;5027214;28;20069;-70
2021/04/11 03:08:16;;;;;;;47.38;24.58;;;9.00;99.90;;;;;;5024817;28;20029;-71
2021/04/11 03:10:52;;;;;;;42.50;23.10;;;9.00;99.90;;;;;;5023403;28;20041;-71
2021/04/11 03:13:21;;;;;;;41.70;23.20;;;9.00;99.90;;;;;;5014106;28;20385;-71
2021/04/11 03:15:48;;;;;;;44.60;24.50;;;9.00;99.90;;;;;;5025246;28;20072;-71
2021/04/11 03:18:15;;;;;;;43.92;24.38;;;9.00;99.90;;;;;;5028165;28;20032;-71
2021/04/11 03:20:42;;;;;;;47.08;25.10;;;9.00;99.90;;;;;;5025653;28;20044;-71
2021/04/11 03:23:10;;;;;;;44.80;24.83;;;9.00;99.90;;;;;;5027967;28;20029;-71
2021/04/11 03:25:38;;;;;;;42.72;24.67;;;9.00;99.90;;;;;;5024103;28;20034;-71
2021/04/11 03:28:19;;;;;;;41.80;23.25;;;9.00;99.90;;;;;;5028324;28;20029;-71
2021/04/11 03:31:00;;;;;;;48.88;25.85;;;9.00;99.90;;;;;;5024698;28;20040;-72
2021/04/11 03:33:26;;;;;;;50.28;25.77;;;9.00;99.90;;;;;;5019317;28;20163;-72
2021/04/11 03:35:52;;;;;;;45.20;23.50;;;9.00;99.90;;;;;;5022861;28;20112;-71
2021/04/11 03:38:28;;;;;;;50.00;24.85;;;9.00;99.90;;;;;;5023305;28;20037;-71
2021/04/11 03:40:57;;;;;;;46.78;25.58;;;9.00;99.90;;;;;;5026638;28;20087;-72
2021/04/11 03:43:28;;;;;;;45.42;25.08;;;9.00;99.90;;;;;;5025728;28;20033;-73
2021/04/11 03:45:56;;;;;;;47.92;24.83;;;9.00;99.90;;;;;;5020077;28;20484;-72
2021/04/11 03:48:25;;;;;;;51.00;25.73;;;9.00;99.90;;;;;;5026659;28;20041;-72
2021/04/11 03:51:04;;;;;;;48.85;24.77;;;9.00;99.90;;;;;;5023400;28;20553;-72
2021/04/11 03:54:01;;;;;;;47.15;25.50;;;9.00;99.90;;;;;;5030061;28;20032;-72
2021/04/11 03:56:46;;;;;;;45.63;25.27;;;9.00;99.90;;;;;;5025225;28;20033;-72
2021/04/11 03:59:18;;;;;;;49.15;26.33;;;9.00;99.90;;;;;;5014155;28;20025;-72
2021/04/11 04:01:48;;;;;;;48.45;25.52;;;9.00;99.90;;;;;;5021721;28;20115;-72
2021/04/11 04:04:19;;;;;;;45.97;25.25;;;9.00;99.90;;;;;;5027075;28;20040;-72
2021/04/11 04:07:00;;;;;;;48.67;26.17;;;9.00;99.90;;;;;;5024886;28;20087;-71
2021/04/11 04:09:25;;;;;;;45.72;24.95;;;9.10;99.90;;;;;;5019408;28;20025;-72
2021/04/11 04:12:07;;;;;;;53.88;26.70;;;9.00;99.90;;;;;;5028774;28;20041;-72
2021/04/11 04:14:47;;;;;;;;;;;9.00;99.90;;;;;;5024251;28;20175;-72
2021/04/11 04:17:49;;;;;;;45.83;24.10;;;9.10;99.90;;;;;;5025958;28;19974;-72
2021/04/11 04:20:26;;;;;;;48.42;24.92;;;9.10;99.90;;;;;;5029187;28;20064;-72
2021/04/11 04:23:27;;;;;;;42.60;23.52;;;9.10;99.90;;;;;;5018188;28;20120;-72
2021/04/11 04:26:15;;;;;;;50.28;27.30;;;9.10;99.90;;;;;;5028480;28;20086;-73
2021/04/11 04:28:50;;;;;;;49.03;26.17;;;9.10;99.90;;;;;;5023532;28;20124;-72
2021/04/11 04:31:54;;;;;;;49.55;25.77;;;9.10;99.90;;;;;;5031573;28;20564;-72
2021/04/11 04:34:32;;;;;;;47.75;26.27;;;9.10;99.90;;;;;;5025791;28;20053;-72
2021/04/11 04:37:15;;;;;;;49.83;26.80;;;9.10;99.90;;;;;;5028992;28;20092;-72
2021/04/11 04:39:55;;;;;;;48.67;25.38;;;9.10;99.90;;;;;;5031331;28;20083;-73
2021/04/11 04:42:47;;;;;;;49.78;26.33;;;9.10;99.90;;;;;;5026250;28;20075;-72
2021/04/11 04:45:19;;;;;;;;;;;9.00;99.90;;;;;;5021275;28;20017;-73
2021/04/11 04:47:53;;;;;;;50.65;25.85;;;9.10;99.90;;;;;;5029338;28;19909;-72
2021/04/11 04:50:21;;;;;;;53.75;26.40;;;9.10;99.90;;;;;;5018738;28;20021;-73
2021/04/11 04:53:01;;;;;;;51.53;26.17;;;9.10;99.90;;;;;;5029602;28;20060;-72
2021/04/11 04:55:26;;;;;;;48.58;25.95;;;9.20;99.90;;;;;;5026616;28;20018;-73
2021/04/11 04:57:59;;;;;;;51.25;26.33;;;9.20;99.90;;;;;;5023052;28;20048;-73
2021/04/11 05:00:35;;;;;;;46.42;25.67;;;9.20;99.90;;;;;;5029717;28;20029;-72
2021/04/11 05:03:15;;;;;;;44.05;25.92;;;9.20;99.90;;;;;;5030713;28;20065;-73
2021/04/11 05:05:46;;;;;;;46.05;25.38;;;9.30;99.90;;;;;;5024085;28;20033;-72
2021/04/11 05:08:23;;;;;;;50.25;26.17;;;9.30;99.90;;;;;;5029325;28;20053;-72
2021/04/11 05:10:51;;;;;;;51.15;26.08;;;9.30;99.90;;;;;;5025171;28;20041;-73
2021/04/11 05:13:23;;;;;;;54.08;27.90;;;9.30;99.90;;;;;;5018393;28;20030;-73
2021/04/11 05:16:08;;;;;;;;;;;9.30;99.90;;;;;;5029652;28;20515;-73
2021/04/11 05:18:41;;;;;;;49.58;25.13;;;9.40;99.90;;;;;;5028507;28;20338;-72
2021/04/11 05:21:12;;;;;;;51.13;26.00;;;9.40;99.90;;;;;;5025536;28;20483;-72
2021/04/11 05:23:51;;;;;;;47.47;25.70;;;9.40;99.90;;;;;;5029926;28;20029;-72
2021/04/11 05:26:30;;;;;;;48.63;25.80;;;9.50;99.90;;;;;;5027541;28;20041;-73
2021/04/11 05:28:55;;;;;;;49.28;26.30;;;9.50;99.90;;;;;;5027765;28;20515;-73
2021/04/11 05:31:27;;;;;;;48.08;26.23;;;9.50;99.90;;;;;;5028346;28;20116;-73
2021/04/11 05:33:54;;;;;;;47.90;26.42;;;9.50;99.90;;;;;;5023973;28;20128;-73
2021/04/11 05:36:50;;;;;;;53.17;27.02;;;9.50;99.90;;;;;;5022441;28;20084;-73
2021/04/11 05:39:34;;;;;;;49.63;27.17;;;9.50;99.90;;;;;;5028537;28;20022;-72
2021/04/11 05:42:09;;;;;;;54.65;26.88;;;9.60;99.90;;;;;;5022946;28;20033;-71
2021/04/11 05:44:54;;;;;;;47.53;26.08;;;9.50;99.90;;;;;;5016522;28;20058;-72
2021/04/11 05:47:28;;;;;;;50.80;26.90;;;9.50;99.90;;;;;;5012585;28;20397;-71
2021/04/11 05:50:05;;;;;;;50.58;26.23;;;9.50;99.90;;;;;;5021380;28;20121;-72
2021/04/11 05:52:39;;;;;;;47.65;27.10;;;9.50;99.90;;;;;;5020874;28;20569;-72
2021/04/11 05:55:08;;;;;;;48.10;26.45;;;9.50;99.90;;;;;;5036917;28;20033;-72
2021/04/11 05:57:41;;;;;;;49.20;25.70;;;9.60;99.90;;;;;;5029059;28;20029;-72
2021/04/11 06:00:30;;;;;;;52.67;26.67;;;9.50;99.90;;;;;;5026881;28;20032;-72
2021/04/11 06:03:03;;;;;;;48.60;27.38;;;9.50;99.90;;;;;;5027659;28;20535;-72
2021/04/11 06:05:36;;;;;;;47.47;27.45;;;9.50;99.90;;;;;;5029562;28;20033;-72
2021/04/11 06:08:19;;;;;;;49.95;26.90;;;9.50;99.90;;;;;;5029726;28;20040;-72
2021/04/11 06:11:06;;;;;;;49.90;26.42;;;9.50;99.90;;;;;;5029967;28;20276;-72
2021/04/11 06:13:44;;;;;;;50.80;26.85;;;9.50;99.90;;;;;;5025293;28;20073;-72
2021/04/11 06:16:18;;;;;;;51.72;26.83;;;9.50;99.90;;;;;;5023369;28;20053;-71
2021/04/11 06:18:47;;;;;;;51.50;27.58;;;9.60;99.90;;;;;;5028590;28;20025;-72
2021/04/11 06:21:31;;;;;;;56.10;27.88;;;9.60;99.90;;;;;;5024198;28;20038;-72
2021/04/11 06:24:31;;;;;;;51.40;26.85;;;9.60;99.90;;;;;;5025846;28;20049;-72
2021/04/11 06:27:14;;;;;;;49.72;26.98;;;9.70;99.90;;;;;;5024250;28;20034;-72
2021/04/11 06:30:06;;;;;;;47.97;25.92;;;9.80;99.90;;;;;;5022173;28;20033;-72
2021/04/11 06:32:37;;;;;;;49.38;26.40;;;9.80;99.90;;;;;;5020684;28;20108;-72
2021/04/11 06:35:08;;;;;;;53.47;26.42;;;9.90;99.90;;;;;;5020835;28;20106;-72
2021/04/11 06:37:36;;;;;;;49.47;27.10;;;9.80;99.90;;;;;;5027386;28;20044;-72
2021/04/11 06:40:09;;;;;;;48.10;25.95;;;9.80;99.90;;;;;;5024429;28;20029;-72
2021/04/11 06:43:06;;;;;;;53.15;28.27;;;9.80;99.90;;;;;;5025471;28;20113;-72
2021/04/11 06:45:42;;;;;;;54.03;26.45;;;9.70;99.90;;;;;;5026734;28;20041;-72
2021/04/11 06:48:26;;;;;;;49.35;27.80;;;9.70;99.90;;;;;;5024859;28;20040;-72
2021/04/11 06:51:16;;;;;;;49.53;27.25;;;9.70;99.90;;;;;;5019870;28;20132;-72
2021/04/11 06:54:24;;;;;;;45.95;27.13;;;9.80;99.90;;;;;;5026444;28;20037;-72
2021/04/11 06:57:18;;;;;;;49.92;26.65;;;9.90;99.90;;;;;;5028556;28;20029;-72
2021/04/11 07:00:09;;;;;;;46.63;26.17;;;10.00;99.90;;;;;;5022388;28;20034;-73
2021/04/11 07:03:06;;;;;;;47.10;25.42;;;10.10;99.90;;;;;;5024358;28;20021;-72
2021/04/11 07:05:47;;;;;;;50.03;25.52;;;10.20;99.90;;;;;;5028123;28;20075;-72
2021/04/11 07:08:24;;;;;;;48.13;26.20;;;10.30;99.90;;;;;;5029220;28;20443;-73
2021/04/11 07:11:12;;;;;;;;;;;;;;;;;;;;;
2021/04/11 07:14:18;;;;;;;44.30;25.80;;;10.30;99.90;;;;;;5025058;28;20507;-72
2021/04/11 07:17:07;;;;;;;47.03;25.13;;;10.30;99.90;;;;;;5025623;28;20042;-72
2021/04/11 07:20:03;;;;;;;46.13;25.75;;;10.30;99.90;;;;;;5026852;28;20566;-72
2021/04/11 07:22:55;;;;;;;44.92;25.60;;;10.30;99.90;;;;;;5014241;28;20053;-72
2021/04/11 07:25:33;;;;;;;48.97;25.70;;;10.30;99.90;;;;;;5024758;28;20025;-72
2021/04/11 07:28:19;;;;;;;51.63;26.05;;;10.30;99.90;;;;;;5025863;28;20048;-73
2021/04/11 07:31:05;;;;;;;50.05;26.75;;;10.30;99.90;;;;;;5020929;28;20038;-73
2021/04/11 07:33:57;;;;;;;44.90;25.02;;;10.30;99.90;;;;;;5015773;28;20135;-75
2021/04/11 07:36:50;;;;;;;43.65;24.35;;;10.40;99.90;;;;;;5022788;28;20025;-74
2021/04/11 07:39:30;;;;;;;29.63;16.58;;;10.50;99.90;;;;;;5024716;28;20029;-74
2021/04/11 07:42:29;;;;;;;45.88;24.38;;;10.80;99.90;;;;;;5018741;28;20030;-73
2021/04/11 07:45:28;;;;;;;42.47;24.10;;;11.00;99.90;;;;;;5027788;28;20076;-72
2021/04/11 07:48:05;;;;;;;41.17;22.40;;;11.20;99.90;;;;;;5024504;28;20037;-72
2021/04/11 07:50:45;;;;;;;44.10;24.40;;;11.30;99.90;;;;;;5025955;28;20019;-72
2021/04/11 07:53:25;;;;;;;35.75;22.20;;;11.40;99.90;;;;;;5020829;28;20025;-72
2021/04/11 07:56:21;;;;;;;39.15;22.05;;;11.50;99.90;;;;;;5028460;28;20091;-72
2021/04/11 07:59:02;;;;;;;40.50;22.73;;;11.70;99.90;;;;;;5031247;28;20091;-73
2021/04/11 08:01:46;;;;;;;45.20;23.23;;;11.80;99.90;;;;;;5027184;28;20021;-71
2021/04/11 08:04:51;;;;;;;37.35;21.65;;;11.90;99.90;;;;;;5025902;28;20036;-72
2021/04/11 08:07:40;;;;;;;37.85;21.27;;;12.00;99.90;;;;;;4998932;28;20076;-72
2021/04/11 08:10:25;;;;;;;38.72;21.38;;;12.10;99.90;;;;;;5027313;28;20029;-71
2021/04/11 08:13:05;;;;;;;38.70;21.73;;;12.20;99.90;;;;;;5030673;28;20025;-70
2021/04/11 08:16:01;;;;;;;31.52;17.13;;;12.20;99.90;;;;;;5029846;28;20163;-72
2021/04/11 08:18:57;;;;;;;41.53;20.80;;;12.30;99.90;;;;;;5031067;28;20029;-71
2021/04/11 08:22:06;;;;;;;36.15;20.88;;;12.30;99.90;;;;;;5027610;28;20051;-72
2021/04/11 08:25:02;;;;;;;34.45;18.92;;;12.40;99.90;;;;;;5015783;28;20377;-71
2021/04/11 08:27:49;;;;;;;31.60;18.88;;;12.50;99.90;;;;;;5022190;28;20025;-71
2021/04/11 08:30:32;;;;;;;34.60;19.52;;;12.60;99.90;;;;;;5029357;28;20028;-71
2021/04/11 08:33:13;;;;;;;34.38;19.30;;;12.70;99.90;;;;;;5040712;28;20036;-72
2021/04/11 08:36:13;;;;;;;32.92;18.67;;;12.90;99.90;;;;;;5030310;28;20084;-71
2021/04/11 08:38:59;;;;;;;31.38;17.83;;;13.00;99.90;;;;;;5026461;28;20506;-71
2021/04/11 08:41:33;;;;;;;29.33;16.67;;;13.10;99.90;;;;;;5034252;28;20535;-70
2021/04/11 08:44:20;;;;;;;31.48;18.20;;;13.10;99.90;;;;;;5031119;28;20029;-73
2021/04/11 08:46:51;;;;;;;31.23;18.23;;;13.20;99.90;;;;;;5036372;28;20040;-72
2021/04/11 08:49:25;;;;;;;31.45;17.35;;;13.30;99.90;;;;;;5031139;28;20030;-72
2021/04/11 08:52:12;;;;;;;35.50;17.35;;;13.30;99.90;;;;;;5031355;28;20515;-72
2021/04/11 08:55:13;;;;;;;31.52;17.80;;;13.40;99.90;;;;;;5029067;28;20025;-73
2021/04/11 08:58:03;;;;;;;32.55;16.95;;;13.40;99.90;;;;;;5030467;28;20037;-72
2021/04/11 09:00:36;;;;;;;34.83;16.65;;;13.50;99.90;;;;;;5028210;28;20112;-72
2021/04/11 09:03:22;;;;;;;25.83;15.23;;;13.50;99.90;;;;;;5018157;28;20037;-72
2021/04/11 09:06:15;;;;;;;23.95;15.35;;;13.50;99.90;;;;;;5028633;28;20095;-72
2021/04/11 09:09:03;;;;;;;26.40;15.02;;;13.60;99.90;;;;;;5025305;28;20038;-73
2021/04/11 09:12:00;;;;;;;30.67;15.63;;;13.60;99.90;;;;;;5025425;28;20021;-73
2021/04/11 09:14:50;;;;;;;26.23;15.40;;;13.70;99.90;;;;;;5023406;28;20527;-72
2021/04/11 09:17:39;;;;;;;26.70;15.45;;;13.80;99.90;;;;;;5031099;28;20053;-73
2021/04/11 09:20:29;;;;;;;26.38;15.00;;;13.90;99.90;;;;;;5028150;28;20496;-74
2021/04/11 09:23:30;;;;;;;27.00;14.98;;;14.10;99.90;;;;;;5035119;28;20496;-72
2021/04/11 09:26:17;;;;;;;24.90;14.50;;;14.20;99.70;;;;;;5023003;28;20112;-72
2021/04/11 09:29:00;;;;;;;24.98;14.32;;;14.20;99.90;;;;;;5026115;28;20029;-75
2021/04/11 09:31:36;;;;;;;24.58;14.65;;;14.20;99.00;;;;;;5026614;28;20028;-76
2021/04/11 09:34:33;;;;;;;27.20;13.95;;;14.30;99.00;;;;;;5027082;28;20042;-75
2021/04/11 09:37:31;;;;;;;22.38;13.93;;;14.40;99.60;;;;;;5020460;28;20029;-75
2021/04/11 09:40:15;;;;;;;23.45;13.73;;;14.50;97.80;;;;;;5012584;28;20026;-75
2021/04/11 09:43:22;;;;;;;25.33;14.05;;;14.60;98.30;;;;;;5027572;28;20036;-75
2021/04/11 09:46:15;;;;;;;22.23;13.57;;;14.60;97.60;;;;;;5029427;28;20032;-75
2021/04/11 09:49:20;;;;;;;23.52;13.88;;;14.50;97.80;;;;;;5034670;28;20120;-74
2021/04/11 09:52:25;;;;;;;22.20;13.55;;;14.40;96.70;;;;;;5019006;28;20462;-74
2021/04/11 09:55:06;;;;;;;24.20;13.77;;;14.40;96.70;;;;;;5032111;28;20485;-74
2021/04/11 09:58:22;;;;;;;24.48;12.95;;;14.40;97.20;;;;;;5027257;28;20028;-74
2021/04/11 10:01:23;;;;;;;24.17;13.15;;;14.50;98.40;;;;;;4935042;29;20127;-74
2021/04/11 10:04:25;;;;;;;22.25;12.88;;;14.50;98.40;;;;;;4922455;29;20028;-74
2021/04/11 10:07:10;;;;;;;23.35;13.27;;;14.60;97.80;;;;;;5025036;28;20032;-73
2021/04/11 10:09:52;;;;;;;24.80;12.52;;;14.70;97.60;;;;;;5023169;28;20068;-73
2021/04/11 10:12:40;;;;;;;19.55;11.77;;;14.80;96.60;;;;;;5025300;28;22414;-74
2021/04/11 10:15:27;;;;;;;22.70;12.38;;;14.90;95.50;;;;;;5027986;28;20034;-74
2021/04/11 10:18:15;;;;;;;21.75;12.23;;;15.10;95.80;;;;;;5025856;28;20529;-72
2021/04/11 10:21:07;;;;;;;19.10;11.45;;;15.20;94.70;;;;;;5021375;28;20041;-71
2021/04/11 10:24:08;;;;;;;23.65;12.15;;;15.40;94.90;;;;;;5019715;28;20188;-71
2021/04/11 10:26:43;;;;;;;19.25;11.80;;;15.60;94.70;;;;;;5018085;28;20034;-71
2021/04/11 10:29:21;;;;;;;22.30;11.00;;;15.80;93.00;;;;;;5025337;28;20029;-71
2021/04/11 10:32:08;;;;;;;21.55;10.90;;;15.90;92.60;;;;;;5020097;28;20049;-71
2021/04/11 10:35:01;;;;;;;17.52;11.65;;;15.90;91.70;;;;;;5018108;28;20807;-71
2021/04/11 10:37:41;;;;;;;16.77;10.82;;;15.90;91.00;;;;;;5018403;28;20113;-71
2021/04/11 10:40:28;;;;;;;18.60;10.70;;;16.00;90.70;;;;;;5014994;28;20121;-71
2021/04/11 10:43:31;;;;;;;16.88;11.32;;;16.00;91.90;;;;;;5018175;28;20038;-72
2021/04/11 10:46:21;;;;;;;19.48;11.63;;;16.00;91.00;;;;;;5021511;28;20029;-73
2021/04/11 10:49:00;;;;;;;20.48;11.50;;;16.00;91.20;;;;;;5019275;28;20025;-71
2021/04/11 10:51:57;;;;;;;20.40;11.38;;;16.20;91.80;;;;;;5015333;28;20050;-72
2021/04/11 10:54:31;;;;;;;19.05;11.13;;;16.60;91.30;;;;;;5019499;28;20443;-73
2021/04/11 10:57:34;;;;;;;17.13;10.02;;;16.90;88.20;;;;;;5018824;28;20041;-74
2021/04/11 11:00:26;;;;;;;19.58;9.35;;;17.20;83.50;;;;;;5019300;28;20604;-72
2021/04/11 11:03:23;;;;;;;17.77;10.60;;;17.30;84.40;;;;;;5014968;28;20121;-73
2021/04/11 11:06:13;;;;;;;14.68;10.23;;;17.50;81.30;;;;;;5024488;28;20464;-73
2021/04/11 11:09:06;;;;;;;16.65;10.27;;;17.70;80.20;;;;;;5019294;28;20132;-73
2021/04/11 11:12:04;;;;;;;16.48;10.20;;;17.90;80.60;;;;;;5019462;28;20083;-73
2021/04/11 11:14:48;;;;;;;13.93;9.23;;;18.00;78.10;;;;;;5014980;28;20068;-72
2021/04/11 11:17:27;;;;;;;15.70;9.75;;;18.20;80.00;;;;;;5019941;28;20033;-73
2021/04/11 11:20:14;;;;;;;21.33;9.57;;;18.60;77.30;;;;;;5018218;28;20441;-72
2021/04/11 11:23:01;;;;;;;15.60;9.32;;;18.90;76.80;;;;;;5021936;28;20026;-72
2021/04/11 11:25:56;;;;;;;16.33;8.85;;;19.20;74.70;;;;;;5025280;28;20028;-75
2021/04/11 11:28:55;;;;;;;13.25;8.15;;;19.40;70.10;;;;;;5022894;28;20025;-74
2021/04/11 11:31:41;;;;;;;10.98;8.15;;;19.50;69.40;;;;;;5026317;28;20115;-75
2021/04/11 11:34:51;;;;;;;14.43;8.45;;;19.70;67.60;;;;;;5026670;28;20194;-75
2021/04/11 11:37:39;;;;;;;11.18;7.97;;;20.00;66.00;;;;;;5018054;28;20037;-76
2021/04/11 11:40:24;;;;;;;13.13;7.55;;;20.30;64.50;;;;;;5030179;28;20040;-74
2021/04/11 11:43:14;;;;;;;11.65;8.02;;;20.60;65.70;;;;;;5017814;28;20029;-74
2021/04/11 11:45:48;;;;;;;15.02;7.57;;;21.00;63.40;;;;;;5022881;28;20091;-76
2021/04/11 11:48:50;;;;;;;11.50;7.97;;;21.30;59.90;;;;;;5027594;28;20399;-75
2021/04/11 11:51:32;;;;;;;11.63;7.57;;;21.60;59.30;;;;;;5011989;28;20048;-77
2021/04/11 11:54:15;;;;;;;14.68;8.13;;;21.90;59.00;;;;;;5037199;28;20063;-71
2021/04/11 11:56:55;;;;;;;13.23;7.97;;;22.10;58.10;;;;;;5020291;28;20041;-74
2021/04/11 11:59:32;;;;;;;13.10;7.95;;;22.10;56.50;;;;;;5022824;28;20033;-74
2021/04/11 12:02:19;;;;;;;12.80;7.70;;;22.40;57.70;;;;;;5025590;28;20021;-73
2021/04/11 12:05:12;;;;;;;10.35;7.50;;;22.90;55.20;;;;;;5011930;28;20115;-74
2021/04/11 12:07:52;;;;;;;10.13;7.38;;;23.40;54.40;;;;;;5016376;28;20033;-75
2021/04/11 12:10:18;;;;;;;10.88;6.88;;;23.90;53.50;;;;;;5017479;28;20446;-73
2021/04/11 12:13:22;;;;;;;9.23;6.38;;;24.40;54.00;;;;;;5022155;28;20718;-73
2021/04/11 12:16:07;;;;;;;8.07;6.13;;;24.90;53.50;;;;;;5003390;28;20034;-73
2021/04/11 12:18:51;;;;;;;10.65;6.15;;;25.40;49.40;;;;;;5025816;28;20087;-73
2021/04/11 12:21:32;;;;;;;9.85;6.30;;;25.90;51.20;;;;;;5019697;28;20044;-73
2021/04/11 12:24:27;;;;;;;14.15;7.18;;;26.20;49.30;;;;;;5015391;28;20022;-74
2021/04/11 12:26:55;;;;;;;8.70;5.95;;;26.80;47.40;;;;;;5016190;28;20177;-73
2021/04/11 12:29:28;;;;;;;8.43;5.60;;;27.00;44.40;;;;;;5024893;28;20033;-73
2021/04/11 12:32:00;;;;;;;7.63;5.45;;;27.10;43.90;;;;;;5021733;28;20389;-73
2021/04/11 12:34:49;;;;;;;7.05;4.28;;;27.20;42.10;;;;;;5028122;28;20025;-73
2021/04/11 12:37:24;;;;;;;7.70;4.32;;;27.40;41.30;;;;;;5025456;28;20017;-73
2021/04/11 12:40:14;;;;;;;7.97;4.45;;;27.80;42.20;;;;;;5020713;28;20112;-74
2021/04/11 12:43:06;;;;;;;9.10;4.60;;;28.00;40.50;;;;;;5025221;28;20410;-73
2021/04/11 12:46:02;;;;;;;6.25;3.97;;;28.60;43.20;;;;;;5019791;28;20026;-71
2021/04/11 12:48:54;;;;;;;7.00;4.82;;;29.30;41.80;;;;;;4995840;28;20132;-71
2021/04/11 12:51:44;;;;;;;8.15;4.13;;;29.90;36.80;;;;;;5026392;28;20400;-71
2021/04/11 12:54:10;;;;;;;4.75;3.53;;;29.90;36.90;;;;;;5025563;28;20037;-71
2021/04/11 12:56:39;;;;;;;8.55;3.80;;;29.80;37.00;;;;;;5026135;28;20030;-73
2021/04/11 12:59:36;;;;;;;6.10;3.92;;;29.60;36.30;;;;;;5018409;28;20049;-72
2021/04/11 13:02:15;;;;;;;6.00;3.60;;;29.80;36.20;;;;;;5023365;28;20573;-71
2021/04/11 13:04:49;;;;;;;5.30;4.07;;;29.90;36.00;;;;;;5024804;28;20112;-71
2021/04/11 13:07:20;;;;;;;9.30;3.90;;;28.60;35.40;;;;;;5028073;28;20036;-71
2021/04/11 13:10:15;;;;;;;5.15;3.88;;;27.20;37.80;;;;;;5037599;28;20451;-71
2021/04/11 13:12:51;;;;;;;4.88;3.63;;;26.30;41.20;;;;;;5021525;28;20034;-71
2021/04/11 13:15:24;;;;;;;8.02;3.72;;;25.90;41.40;;;;;;5035989;28;20035;-71
2021/04/11 13:18:23;;;;;;;7.00;4.10;;;26.40;42.30;;;;;;5022534;28;20026;-71
2021/04/11 13:21:24;;;;;;;5.70;3.50;;;26.80;40.10;;;;;;5028497;28;20018;-71
2021/04/11 13:24:04;;;;;;;;;;;27.20;40.20;;;;;;5024111;28;20108;-70
2021/04/11 13:26:51;;;;;;;7.10;3.83;;;28.10;38.00;;;;;;5022670;28;19913;-72
2021/04/11 13:29:39;;;;;;;5.15;4.25;;;28.70;38.40;;;;;;5029386;28;20487;-71
2021/04/11 13:32:26;;;;;;;5.22;3.83;;;29.20;37.40;;;;;;5035722;28;20031;-71
2021/04/11 13:35:13;;;;;;;6.55;3.00;;;29.80;36.00;;;;;;5031543;28;20036;-71
2021/04/11 13:38:05;;;;;;;4.75;3.10;;;29.90;36.40;;;;;;5035426;28;20052;-71
2021/04/11 13:40:33;;;;;;;5.93;3.20;;;29.20;35.80;;;;;;5029788;28;20033;-71
2021/04/11 13:43:23;;;;;;;5.78;3.30;;;28.50;36.40;;;;;;5029522;28;20112;-73
2021/04/11 13:46:08;;;;;;;4.53;3.20;;;27.70;37.80;;;;;;5023312;28;20361;-71